Time;durP1;ratioP1;P1;durP2;ratioP2;P2;SDS_P1;SDS_P2;PMS_P1;PMS_P2;Temp;Humidity;BMP_temperature;BMP_pressure;BME280_temperature;BME280_humidity;BME280_pressure;Samples;Min_cycle;Max_cycle;Signal;HPM_P1;HPM_P2
2022/07/06 00:00:54;;;;;;;4.80;3.40;;;15.90;99.90;;;16.71;74.19;98431.34;5136802;28;20327;-57
2022/07/06 00:03:27;;;;;;;3.60;3.38;;;15.90;99.90;;;16.69;74.38;98433.91;5139707;28;20254;-54
2022/07/06 00:06:01;;;;;;;3.95;3.60;;;15.90;99.90;;;16.73;74.89;98440.94;5143343;28;20200;-57
2022/07/06 00:08:34;;;;;;;4.60;3.58;;;15.90;99.90;;;16.65;74.97;98440.63;5138278;28;20200;-56
2022/07/06 00:11:08;;;;;;;3.60;3.40;;;15.90;99.90;;;16.60;74.02;98449.00;5137227;28;20247;-57
2022/07/06 00:13:41;;;;;;;4.13;3.90;;;15.80;99.90;;;16.59;75.19;98442.94;5143505;28;20230;-57
2022/07/06 00:16:15;;;;;;;3.63;3.42;;;15.80;99.90;;;16.61;74.09;98448.16;5138598;28;20922;-57
2022/07/06 00:18:48;;;;;;;3.78;3.58;;;15.80;99.90;;;16.58;74.50;98448.03;5135985;28;20251;-56
2022/07/06 00:21:21;;;;;;;3.65;3.42;;;15.80;99.90;;;16.51;74.76;98451.16;5136117;28;20688;-56
2022/07/06 00:23:54;;;;;;;4.20;3.80;;;15.70;99.90;;;16.50;74.18;98439.09;5138834;28;20203;-57
2022/07/06 00:26:29;;;;;;;3.80;3.60;;;15.60;99.90;;;16.49;75.10;98440.78;5138280;28;20247;-57
2022/07/06 00:29:02;;;;;;;3.75;3.47;;;15.70;99.90;;;16.45;74.53;98446.63;5136636;28;20254;-57
2022/07/06 00:31:35;;;;;;;4.22;3.92;;;15.70;99.90;;;16.41;74.74;98442.16;5142166;28;20224;-58
2022/07/06 00:34:08;;;;;;;4.55;3.80;;;15.60;99.90;;;16.39;74.98;98443.78;5136550;28;20204;-56
2022/07/06 00:36:41;;;;;;;3.80;3.50;;;15.60;99.90;;;16.36;75.70;98441.94;5142441;28;20219;-58
2022/07/06 00:39:14;;;;;;;3.85;3.65;;;15.60;99.90;;;16.36;75.20;98448.78;5137322;28;20604;-58
2022/07/06 00:41:49;;;;;;;3.72;3.50;;;15.60;99.90;;;16.32;74.70;98452.94;5135686;28;20232;-58
2022/07/06 00:44:22;;;;;;;3.25;3.00;;;15.50;99.90;;;16.35;73.95;98453.09;5140376;28;20384;-57
2022/07/06 00:46:55;;;;;;;4.05;3.72;;;15.50;99.90;;;16.32;73.99;98457.22;5140177;28;20361;-58
2022/07/06 00:52:19;;;;;;;4.30;4.00;;;15.40;99.90;;;16.25;74.59;98453.47;5135351;28;20227;-56
2022/07/06 00:54:53;;;;;;;4.10;3.80;;;15.40;99.90;;;16.23;75.74;98457.72;5141074;28;20307;-56
2022/07/06 00:57:28;;;;;;;4.28;3.97;;;15.40;99.90;;;16.16;76.55;98458.22;5139925;28;20204;-56
2022/07/06 01:00:02;;;;;;;4.57;4.18;;;15.30;99.90;;;16.17;76.45;98453.16;5138490;28;20220;-57
2022/07/06 01:02:37;;;;;;;4.13;3.92;;;15.30;99.90;;;16.15;76.32;98454.78;5137859;28;20250;-54
2022/07/06 01:05:13;;;;;;;4.20;3.88;;;15.30;99.90;;;16.11;76.70;98450.31;5134687;28;20546;-58
2022/07/06 01:07:49;;;;;;;4.25;3.95;;;15.30;99.90;;;16.09;76.64;98446.78;5137988;28;20200;-57
2022/07/06 01:10:23;;;;;;;3.85;3.65;;;15.30;99.90;;;16.06;77.30;98446.63;5135706;28;20235;-54
2022/07/06 01:12:58;;;;;;;4.38;4.07;;;15.30;99.90;;;16.08;76.73;98446.69;5138542;28;20254;-58
2022/07/06 01:15:31;;;;;;;3.80;3.60;;;15.20;99.90;;;16.07;76.90;98453.56;5139617;28;20219;-58
2022/07/06 01:18:05;;;;;;;3.85;3.65;;;15.20;99.90;;;16.05;77.44;98451.72;5142125;28;20254;-58
2022/07/06 01:20:40;;;;;;;4.43;4.03;;;15.20;99.90;;;16.03;77.09;98449.09;5139109;28;20218;-57
2022/07/06 01:23:13;;;;;;;4.18;3.88;;;15.20;99.90;;;16.04;76.95;98445.69;5138845;28;20200;-56
2022/07/06 01:25:46;;;;;;;4.60;4.30;;;15.20;99.90;;;16.05;77.01;98452.59;5139368;28;20203;-57
2022/07/06 01:28:19;;;;;;;3.90;3.60;;;15.20;99.90;;;15.94;76.99;98451.25;5138936;28;20609;-57
2022/07/06 01:30:53;;;;;;;4.10;3.80;;;15.10;99.90;;;15.91;77.21;98448.50;5136108;28;20691;-57
2022/07/06 01:33:26;;;;;;;3.85;3.60;;;15.10;99.90;;;15.88;76.42;98444.13;5135810;28;20204;-57
2022/07/06 01:36:01;;;;;;;4.32;4.00;;;15.10;99.90;;;15.89;76.31;98450.16;5136449;28;20224;-56
2022/07/06 01:38:45;;;;;;;4.43;4.03;;;15.00;99.90;;;15.87;77.40;98441.47;5139556;28;20203;-54
2022/07/06 01:41:20;;;;;;;4.13;3.92;;;15.00;99.90;;;15.79;77.75;98447.94;5136698;28;20671;-57
2022/07/06 01:43:53;;;;;;;3.95;3.65;;;15.00;99.90;;;15.77;76.99;98453.06;5136550;28;20254;-57
2022/07/06 01:46:26;;;;;;;4.10;3.80;;;14.90;99.90;;;15.74;77.14;98455.50;5140494;28;20200;-57
2022/07/06 01:49:00;;;;;;;4.15;3.85;;;14.90;99.90;;;15.67;76.38;98446.53;5139044;28;20291;-57
2022/07/06 01:51:34;;;;;;;4.22;3.92;;;14.80;99.90;;;15.61;77.19;98446.25;5138479;28;20298;-57
2022/07/06 01:54:07;;;;;;;4.00;3.80;;;14.80;99.90;;;15.55;77.87;98441.69;5140656;28;20203;-58
2022/07/06 01:56:40;;;;;;;3.97;3.70;;;14.80;99.90;;;15.46;76.84;98442.97;5138229;28;20271;-56
2022/07/06 01:59:14;;;;;;;3.65;3.45;;;14.60;99.90;;;15.46;78.04;98443.84;5140765;28;20227;-58
2022/07/06 02:01:47;;;;;;;4.30;4.00;;;14.60;99.90;;;15.46;77.12;98442.97;5138286;28;20266;-58
2022/07/06 02:04:20;;;;;;;4.13;3.92;;;14.60;99.90;;;15.40;78.13;98442.69;5137677;28;20212;-58
2022/07/06 02:06:55;;;;;;;4.53;4.13;;;14.60;99.90;;;15.37;77.46;98447.69;5137126;28;20196;-58
2022/07/06 02:09:28;;;;;;;4.60;4.30;;;14.50;99.90;;;15.33;78.43;98444.06;5137563;28;20734;-56
2022/07/06 02:12:02;;;;;;;4.40;4.00;;;14.50;99.90;;;15.33;78.66;98454.38;5133701;28;20305;-54
2022/07/06 02:14:36;;;;;;;4.00;3.80;;;14.60;99.90;;;15.33;78.78;98459.53;5135051;28;20207;-56
2022/07/06 02:17:09;;;;;;;4.78;4.30;;;14.60;99.90;;;15.36;78.56;98461.38;5137064;28;20227;-54
2022/07/06 02:19:42;;;;;;;4.45;4.20;;;14.60;99.90;;;15.38;78.34;98460.63;5145702;28;20296;-59
2022/07/06 02:22:17;;;;;;;4.55;3.88;;;14.50;99.90;;;15.36;78.17;98466.50;5140051;28;20247;-58
2022/07/06 02:24:50;;;;;;;4.25;3.85;;;14.50;99.90;;;15.36;77.72;98457.09;5134219;28;20200;-58
2022/07/06 02:27:23;;;;;;;4.80;4.07;;;14.50;99.90;;;15.26;78.04;98460.94;5138540;28;20200;-56
2022/07/06 02:29:56;;;;;;;4.82;4.40;;;14.50;99.90;;;15.26;78.14;98460.94;5138926;28;21572;-58
2022/07/06 02:32:29;;;;;;;4.47;4.07;;;14.40;99.90;;;15.25;78.52;98463.41;5134212;28;20239;-58
2022/07/06 02:35:03;;;;;;;4.50;4.10;;;14.50;99.90;;;15.21;78.76;98462.38;5137805;28;20251;-58
2022/07/06 02:37:37;;;;;;;4.53;4.20;;;14.40;99.90;;;15.09;77.91;98454.97;5135734;28;20227;-57
2022/07/06 02:40:12;;;;;;;4.82;4.43;;;14.30;99.90;;;15.09;77.62;98456.66;5138025;28;20289;-58
2022/07/06 02:42:45;;;;;;;5.10;4.32;;;14.30;99.90;;;15.02;78.26;98447.75;5136628;28;20562;-56
2022/07/06 02:45:18;;;;;;;4.53;4.22;;;14.20;99.90;;;14.93;78.72;98460.16;5135715;28;20216;-56
2022/07/06 02:47:53;;;;;;;4.53;4.13;;;14.10;99.90;;;15.00;79.51;98462.25;5135002;28;20203;-55
2022/07/06 02:50:26;;;;;;;4.60;4.20;;;14.20;99.90;;;15.03;79.63;98469.22;5135957;28;20276;-58
2022/07/06 02:53:01;;;;;;;4.78;4.47;;;14.20;99.90;;;15.01;79.88;98469.13;5135461;28;20207;-56
2022/07/06 02:55:35;;;;;;;4.70;4.40;;;14.30;99.90;;;15.00;79.17;98476.81;5136951;28;20208;-58
2022/07/06 02:58:08;;;;;;;4.85;4.53;;;14.30;99.90;;;15.03;79.29;98480.41;5131683;28;20215;-57
2022/07/06 03:00:41;;;;;;;4.85;4.45;;;14.30;99.90;;;15.03;80.09;98476.94;5132868;28;20367;-56
2022/07/06 03:03:14;;;;;;;5.13;4.72;;;14.30;99.90;;;14.97;79.70;98479.22;5132592;28;20209;-55
2022/07/06 03:05:48;;;;;;;5.03;4.57;;;14.20;99.90;;;14.91;80.43;98482.38;5138023;28;20195;-55
2022/07/06 03:08:23;;;;;;;5.05;4.53;;;14.10;99.90;;;14.92;79.80;98490.97;5134853;28;20298;-58
2022/07/06 03:10:57;;;;;;;4.85;4.55;;;14.20;99.90;;;14.82;79.43;98485.38;5134640;28;20231;-58
2022/07/06 03:13:30;;;;;;;4.90;4.60;;;14.10;99.90;;;14.76;79.84;98490.19;5136416;28;20211;-56
2022/07/06 03:16:03;;;;;;;4.82;4.53;;;14.00;99.90;;;14.77;81.21;98484.25;5135108;28;20224;-56
2022/07/06 03:18:36;;;;;;;4.60;4.30;;;14.00;99.90;;;14.81;80.89;98483.59;5138919;28;20209;-58
2022/07/06 03:21:10;;;;;;;4.90;4.60;;;14.10;99.90;;;14.84;81.05;98488.88;5135099;28;20303;-60
2022/07/06 03:23:44;;;;;;;5.43;4.95;;;14.10;99.90;;;14.82;80.35;98487.94;5138469;28;20694;-58
2022/07/06 03:26:18;;;;;;;4.70;4.40;;;14.10;99.90;;;14.84;80.42;98486.31;5131487;28;20255;-58
2022/07/06 03:28:51;;;;;;;5.03;4.65;;;14.00;99.90;;;14.82;80.66;98493.09;5135403;28;20192;-58
2022/07/06 03:31:24;;;;;;;4.63;4.32;;;14.00;99.90;;;14.85;79.81;98494.91;5135018;28;20646;-58
2022/07/06 03:33:57;;;;;;;4.93;4.47;;;14.00;99.90;;;14.81;81.33;98493.00;5140420;28;20291;-58
2022/07/06 03:36:30;;;;;;;4.60;4.40;;;14.00;99.90;;;14.75;80.83;98496.16;5134890;28;20917;-57
2022/07/06 03:39:12;;;;;;;4.70;4.40;;;14.00;99.90;;;14.74;80.45;98499.53;5131904;28;20287;-60
2022/07/06 03:41:45;;;;;;;4.70;4.40;;;13.90;99.90;;;14.74;80.11;98496.97;5137185;28;20302;-55
2022/07/06 03:44:18;;;;;;;5.00;4.53;;;13.90;99.90;;;14.72;80.70;98501.16;5129559;28;20244;-57
2022/07/06 03:46:55;;;;;;;5.18;4.88;;;13.90;99.90;;;14.76;80.50;98497.91;5133638;28;20618;-55
2022/07/06 03:49:28;;;;;;;4.55;4.13;;;13.90;99.90;;;14.69;79.26;98501.00;5129861;28;20230;-58
2022/07/06 03:52:01;;;;;;;5.75;5.35;;;13.90;99.90;;;14.67;79.96;98507.75;5132681;28;20221;-58
2022/07/06 03:54:36;;;;;;;4.75;4.45;;;13.90;99.90;;;14.67;79.40;98506.84;5137431;28;20260;-58
2022/07/06 03:57:09;;;;;;;4.93;4.50;;;13.90;99.90;;;14.70;79.92;98509.59;5140516;28;20211;-58
2022/07/06 03:59:42;;;;;;;4.47;4.13;;;13.90;99.90;;;14.73;79.51;98509.75;5141454;28;20252;-57
2022/07/06 04:02:15;;;;;;;5.07;4.68;;;13.90;99.90;;;14.54;79.20;98501.09;5137849;28;20256;-57
2022/07/06 04:04:48;;;;;;;5.45;4.97;;;13.80;99.90;;;14.53;80.10;98506.16;5143162;28;20689;-58
2022/07/06 04:07:22;;;;;;;5.45;5.05;;;13.70;99.90;;;14.46;78.80;98506.59;5137605;28;20208;-59
2022/07/06 04:09:56;;;;;;;5.15;4.85;;;13.60;99.90;;;14.50;80.15;98503.38;5141323;28;20204;-59
2022/07/06 04:12:30;;;;;;;5.03;4.63;;;13.70;99.90;;;14.58;80.67;98508.16;5138237;28;20230;-58
2022/07/06 04:15:03;;;;;;;4.95;4.55;;;13.80;99.90;;;14.66;80.80;98511.13;5140719;28;20200;-58
2022/07/06 04:17:55;;;;;;;4.93;4.63;;;13.90;99.90;;;14.66;80.01;98505.97;5139376;28;20227;-59
2022/07/06 04:20:29;;;;;;;5.20;4.90;;;13.90;99.90;;;14.69;80.34;98520.69;5141707;28;20227;-59
2022/07/06 04:23:02;;;;;;;5.10;4.80;;;13.90;99.90;;;14.71;79.94;98519.97;5134040;28;20574;-57
2022/07/06 04:25:37;;;;;;;5.10;4.63;;;13.90;99.90;;;14.73;80.51;98520.91;5139487;28;20200;-55
2022/07/06 04:28:10;;;;;;;5.40;5.00;;;13.90;99.90;;;14.77;79.63;98519.41;5138980;28;20203;-57
2022/07/06 04:30:43;;;;;;;5.47;5.05;;;13.90;99.90;;;14.81;80.07;98517.03;5136117;28;20260;-58
2022/07/06 04:33:16;;;;;;;5.55;5.03;;;14.00;99.90;;;14.86;79.88;98520.75;5138571;28;20243;-56
2022/07/06 04:35:50;;;;;;;5.10;4.80;;;14.10;99.90;;;14.92;79.74;98520.19;5137043;28;20636;-56
2022/07/06 04:38:23;;;;;;;5.72;5.25;;;14.10;99.90;;;15.00;79.97;98513.72;5142628;28;20286;-52
2022/07/06 04:40:58;;;;;;;5.30;5.00;;;14.30;99.90;;;15.16;79.73;98519.63;5136735;28;20294;-56
2022/07/06 04:43:31;;;;;;;5.05;4.75;;;14.40;99.90;;;15.15;79.39;98523.03;5143525;28;20742;-56
2022/07/06 04:46:05;;;;;;;4.90;4.60;;;14.40;99.90;;;15.22;78.62;98520.84;5137872;28;20197;-57
2022/07/06 04:48:39;;;;;;;5.20;4.70;;;14.50;99.90;;;15.55;78.31;98525.84;5134953;28;20192;-57
2022/07/06 04:51:13;;;;;;;4.90;4.50;;;14.80;99.90;;;16.07;76.50;98533.50;5143480;28;20220;-60
2022/07/06 04:53:46;;;;;;;5.28;4.90;;;15.30;99.90;;;16.62;73.16;98530.81;5137774;28;20210;-59
2022/07/06 04:56:21;;;;;;;4.95;4.57;;;15.70;99.90;;;17.28;71.03;98540.53;5135231;28;20623;-58
2022/07/06 04:58:54;;;;;;;4.55;4.18;;;16.30;99.90;;;17.72;68.15;98541.50;5143647;28;20258;-59
2022/07/06 05:01:27;;;;;;;4.50;4.20;;;16.60;99.90;;;18.17;67.21;98544.09;5142044;28;20228;-60
2022/07/06 05:04:00;;;;;;;4.50;4.10;;;17.00;99.90;;;18.73;65.28;98534.09;5145907;28;20263;-58
2022/07/06 05:06:34;;;;;;;4.70;4.25;;;17.50;99.90;;;19.30;62.73;98540.44;5141667;28;20212;-58
2022/07/06 05:09:07;;;;;;;4.78;3.97;;;17.90;99.90;;;19.67;61.50;98541.69;5137524;28;20255;-58
2022/07/06 05:11:42;;;;;;;4.30;4.00;;;18.20;99.90;;;20.13;59.98;98544.84;5137624;28;20282;-58
2022/07/06 05:14:15;;;;;;;4.00;3.70;;;18.50;99.90;;;20.50;57.78;98544.22;5138297;28;20250;-59
2022/07/06 05:16:48;;;;;;;3.53;3.22;;;18.80;99.90;;;20.88;56.89;98544.44;5145657;28;20188;-59
2022/07/06 05:19:21;;;;;;;3.50;3.20;;;19.00;99.90;;;21.18;55.81;98543.50;5137429;28;20236;-60
2022/07/06 05:21:54;;;;;;;4.00;3.58;;;19.30;99.30;;;21.43;54.84;98547.63;5143215;28;20644;-60
2022/07/06 05:24:28;;;;;;;3.90;3.60;;;19.50;98.40;;;21.52;54.58;98546.16;5134169;28;20303;-60
2022/07/06 05:27:02;;;;;;;3.88;3.58;;;19.70;98.60;;;21.75;54.21;98541.50;5138700;28;20200;-60
2022/07/06 05:29:36;;;;;;;4.15;3.85;;;19.80;98.50;;;22.03;52.90;98535.22;5145136;28;20628;-60
2022/07/06 05:32:09;;;;;;;3.50;3.30;;;20.00;97.70;;;22.03;53.15;98539.50;5137881;28;20204;-60
2022/07/06 05:34:42;;;;;;;3.30;3.05;;;19.90;97.70;;;22.22;52.60;98546.06;5137181;28;20204;-60
2022/07/06 05:37:15;;;;;;;3.35;3.15;;;20.00;97.60;;;22.65;51.54;98544.34;5144961;28;20220;-60
2022/07/06 05:39:50;;;;;;;3.58;3.38;;;20.50;96.70;;;22.73;51.27;98548.00;5131078;28;20660;-60
2022/07/06 05:42:24;;;;;;;4.05;3.55;;;20.60;96.60;;;22.99;50.35;98540.72;5142296;28;20250;-60
2022/07/06 05:44:57;;;;;;;4.53;3.97;;;20.80;95.90;;;23.10;50.09;98544.38;5135909;28;20192;-60
2022/07/06 05:50:21;;;;;;;3.75;3.45;;;21.10;94.40;;;23.60;48.06;98543.50;5132530;28;20256;-60
2022/07/06 05:53:00;;;;;;;3.63;3.42;;;21.20;94.50;;;23.65;48.30;98546.19;5134391;28;20618;-60
2022/07/06 05:55:43;;;;;;;4.05;3.72;;;21.20;94.50;;;23.87;48.24;98544.84;5137167;28;20251;-60
2022/07/06 05:58:18;;;;;;;4.55;3.72;;;21.50;94.60;;;23.95;47.71;98540.59;5138003;28;20204;-60
2022/07/06 06:00:51;;;;;;;6.10;3.95;;;21.50;94.30;;;24.27;47.13;98539.31;5139933;28;20227;-59
2022/07/06 06:03:24;;;;;;;3.65;3.40;;;21.80;93.70;;;24.44;47.05;98544.81;5134687;28;20664;-61
2022/07/06 06:05:57;;;;;;;4.00;3.70;;;21.80;93.70;;;24.37;46.92;98544.66;5144392;28;20241;-59
2022/07/06 06:08:30;;;;;;;4.88;3.50;;;21.70;93.80;;;24.38;45.57;98541.19;5144442;28;20617;-60
2022/07/06 06:11:03;;;;;;;3.88;3.55;;;21.70;93.20;;;24.81;45.65;98554.81;5135710;28;20220;-59
2022/07/06 06:13:44;;;;;;;3.88;3.58;;;21.90;93.10;;;24.90;45.12;98547.09;5129027;28;20236;-60
2022/07/06 06:16:17;;;;;;;3.92;3.50;;;22.10;92.70;;;24.50;45.52;98547.50;5141486;28;20246;-60
2022/07/06 06:18:51;;;;;;;3.40;3.20;;;21.80;93.00;;;24.34;46.21;98549.84;5139694;28;20259;-60
2022/07/06 06:21:24;;;;;;;4.03;3.40;;;21.30;93.60;;;24.37;45.92;98553.38;5135857;28;20231;-60
2022/07/06 06:23:57;;;;;;;4.05;3.60;;;21.50;93.20;;;24.77;45.36;98553.03;5144835;28;20203;-61
2022/07/06 06:26:30;;;;;;;4.07;3.10;;;21.90;92.70;;;25.23;43.72;98558.81;5144543;28;20705;-61
2022/07/06 06:29:05;;;;;;;4.35;3.03;;;22.30;92.10;;;25.53;43.17;98559.09;5140175;28;20258;-60
2022/07/06 06:31:38;;;;;;;3.40;3.10;;;22.50;91.60;;;25.74;42.47;98552.28;5135486;28;20227;-60
2022/07/06 06:34:13;;;;;;;3.45;3.15;;;22.80;90.90;;;25.95;41.90;98559.44;5132884;28;20629;-61
2022/07/06 06:36:47;;;;;;;3.17;2.92;;;23.00;90.30;;;26.25;41.09;98553.53;5133037;28;20255;-61
2022/07/06 06:39:20;;;;;;;3.63;3.25;;;23.30;90.10;;;26.64;40.05;98558.13;5143899;28;20878;-59
2022/07/06 06:41:53;;;;;;;3.45;2.80;;;23.50;89.00;;;27.00;39.45;98553.00;5134138;28;20278;-62
2022/07/06 06:44:27;;;;;;;3.10;2.90;;;23.70;87.50;;;27.13;38.92;98547.78;5135837;28;20331;-60
2022/07/06 06:47:00;;;;;;;3.50;2.72;;;23.80;87.40;;;27.36;38.60;98550.47;5136296;28;20246;-60
2022/07/06 06:49:34;;;;;;;4.32;3.10;;;24.10;86.90;;;27.34;38.55;98549.56;5136076;28;20214;-58
2022/07/06 06:52:07;;;;;;;3.25;3.00;;;24.00;86.30;;;27.62;38.19;98552.22;5136635;28;20282;-60
2022/07/06 06:55:00;;;;;;;3.47;3.17;;;24.40;85.70;;;27.52;38.63;98547.84;5135553;28;20691;-59
2022/07/06 06:57:33;;;;;;;3.95;2.80;;;24.30;85.60;;;27.68;38.17;98552.22;5135632;28;20199;-61
2022/07/06 07:00:10;;;;;;;3.53;3.20;;;24.50;85.50;;;27.90;37.87;98541.72;5135470;28;20695;-62
2022/07/06 07:02:43;;;;;;;3.85;2.85;;;24.80;84.50;;;28.17;36.72;98546.06;5132943;28;20218;-59
2022/07/06 07:05:16;;;;;;;3.08;2.78;;;24.90;83.50;;;28.13;36.24;98550.47;5139302;28;20228;-62
2022/07/06 07:07:49;;;;;;;2.90;2.70;;;24.90;82.40;;;28.11;37.50;98546.09;5140446;28;20204;-60
2022/07/06 07:10:22;;;;;;;3.05;2.85;;;25.00;82.70;;;28.41;35.94;98550.38;5142868;28;20278;-62
2022/07/06 07:12:55;;;;;;;3.30;3.00;;;25.20;81.60;;;28.58;35.49;98548.59;5140609;28;20211;-62
2022/07/06 07:15:30;;;;;;;3.47;2.72;;;25.40;80.50;;;28.68;35.76;98546.81;5136126;28;20656;-62
2022/07/06 07:18:03;;;;;;;3.05;2.75;;;25.70;81.10;;;29.07;35.14;98545.72;5139554;28;20207;-61
2022/07/06 07:20:36;;;;;;;3.50;2.70;;;25.90;80.20;;;28.95;35.28;98543.16;5138470;28;20219;-62
2022/07/06 07:23:10;;;;;;;3.00;2.58;;;25.90;79.20;;;29.04;35.39;98537.00;5143082;28;20191;-61
2022/07/06 07:25:43;;;;;;;3.13;2.85;;;25.90;79.30;;;29.08;35.20;98539.59;5137341;28;20671;-62
2022/07/06 07:28:16;;;;;;;3.92;2.80;;;25.90;79.30;;;29.02;35.35;98544.88;5139407;28;20188;-62
2022/07/06 07:30:51;;;;;;;3.40;2.90;;;25.90;78.90;;;29.00;35.26;98543.13;5136344;28;20266;-62
2022/07/06 07:33:24;;;;;;;3.85;2.72;;;25.80;79.60;;;29.25;35.13;98541.25;5141448;28;20196;-62
2022/07/06 07:35:58;;;;;;;4.05;3.10;;;26.10;79.10;;;29.27;34.24;98534.19;5144123;28;20226;-62
2022/07/06 07:38:31;;;;;;;3.95;2.80;;;26.20;78.10;;;29.34;35.12;98536.78;5135340;28;20227;-62
2022/07/06 07:41:06;;;;;;;2.72;2.50;;;26.20;79.10;;;29.18;34.33;98538.63;5142955;28;20227;-59
2022/07/06 07:43:39;;;;;;;3.45;2.88;;;25.90;78.50;;;29.12;34.88;98533.41;5131729;28;20199;-61
2022/07/06 07:46:13;;;;;;;3.10;2.90;;;26.10;78.50;;;29.07;35.00;98535.19;5135782;28;20228;-60
2022/07/06 07:48:46;;;;;;;3.08;2.70;;;26.00;79.20;;;29.22;35.00;98538.63;5136734;28;20262;-61
2022/07/06 07:51:20;;;;;;;6.32;2.88;;;25.90;79.10;;;29.14;35.20;98539.56;5139078;28;20629;-62
2022/07/06 07:53:53;;;;;;;3.13;2.75;;;25.90;79.50;;;29.56;35.00;98534.88;5136901;28;20266;-59
2022/07/06 07:56:26;;;;;;;3.53;3.00;;;26.50;78.10;;;29.76;34.02;98531.19;5137663;28;20196;-61
2022/07/06 07:58:59;;;;;;;2.85;2.50;;;26.70;77.60;;;30.13;33.61;98529.06;5145016;28;20219;-62
2022/07/06 08:01:34;;;;;;;3.72;2.53;;;26.80;76.20;;;30.34;32.79;98522.75;5139094;28;20227;-62
2022/07/06 08:04:08;;;;;;;3.15;2.67;;;26.90;75.90;;;30.32;33.14;98532.44;5143796;28;20247;-61
2022/07/06 08:06:41;;;;;;;3.28;2.97;;;26.90;76.20;;;30.64;32.66;98531.16;5143104;28;20258;-61
2022/07/06 08:09:16;;;;;;;3.13;2.72;;;27.10;75.70;;;30.70;32.41;98531.94;5141970;28;20200;-61
2022/07/06 08:11:49;;;;;;;3.78;3.15;;;27.30;75.50;;;30.53;32.96;98526.91;5142101;28;20238;-60
2022/07/06 08:14:22;;;;;;;10.20;4.47;;;27.30;75.70;;;30.66;32.13;98526.75;5137505;28;20240;-61
2022/07/06 08:16:57;;;;;;;7.50;4.00;;;27.30;74.60;;;30.70;32.07;98526.66;5139059;28;20207;-58
2022/07/06 08:19:30;;;;;;;3.75;2.72;;;27.30;74.50;;;30.78;31.88;98523.94;5137507;28;20223;-60
2022/07/06 08:22:06;;;;;;;3.17;2.50;;;27.40;74.10;;;30.89;31.88;98537.91;5138822;28;20290;-58
2022/07/06 08:24:39;;;;;;;2.67;2.47;;;27.20;74.60;;;30.68;32.17;98530.25;5142777;28;20218;-62
2022/07/06 08:27:13;;;;;;;2.50;2.30;;;27.30;74.30;;;30.39;32.62;98526.19;5136703;28;20200;-60
2022/07/06 08:29:46;;;;;;;3.83;2.50;;;27.30;74.20;;;29.96;33.01;98517.81;5142136;28;20287;-61
2022/07/06 08:32:20;;;;;;;3.17;2.60;;;27.20;74.00;;;29.81;33.34;98526.75;5135798;28;20199;-59
2022/07/06 08:35:13;;;;;;;3.78;2.63;;;27.20;73.40;;;29.69;34.84;98529.53;5146066;28;20290;-59
2022/07/06 08:37:47;;;;;;;4.80;2.60;;;27.00;76.40;;;29.52;35.27;98525.22;5138079;28;20208;-61
2022/07/06 08:40:20;;;;;;;4.63;2.53;;;27.20;75.90;;;29.69;33.90;98535.66;5140735;28;20575;-60
2022/07/06 08:42:55;;;;;;;4.55;3.17;;;27.30;74.50;;;29.73;33.65;98520.69;5140068;28;20597;-60
2022/07/06 08:45:30;;;;;;;3.10;2.75;;;27.70;73.00;;;29.24;33.86;98531.59;5141041;28;20207;-59
2022/07/06 08:48:08;;;;;;;3.35;2.70;;;27.30;72.20;;;29.39;34.06;98521.84;5142514;28;20200;-61
2022/07/06 08:50:41;;;;;;;2.90;2.70;;;27.30;73.00;;;29.40;34.39;98520.06;5147634;28;20215;-59
2022/07/06 08:53:14;;;;;;;3.38;2.80;;;27.30;74.10;;;29.40;34.78;98520.94;5140939;28;20259;-61
2022/07/06 08:55:48;;;;;;;5.78;2.95;;;27.70;74.30;;;29.67;35.28;98518.13;5139330;28;20738;-62
2022/07/06 08:58:24;;;;;;;5.40;2.60;;;28.10;73.50;;;29.67;34.08;98523.38;5144624;28;20254;-61
2022/07/06 09:00:58;;;;;;;3.17;2.85;;;28.20;72.00;;;29.47;34.07;98516.47;5145310;28;20268;-61
2022/07/06 09:03:33;;;;;;;4.32;2.50;;;27.80;72.30;;;29.49;34.42;98522.63;5141146;28;20238;-62
2022/07/06 09:06:08;;;;;;;4.00;2.75;;;27.80;72.90;;;29.38;34.46;98527.09;5138775;28;20223;-61
2022/07/06 09:08:41;;;;;;;3.63;2.80;;;27.80;72.90;;;29.56;34.16;98515.53;5137637;28;20245;-62
2022/07/06 09:11:15;;;;;;;3.38;3.08;;;27.90;73.40;;;29.36;34.83;98526.22;5139608;28;20215;-61
2022/07/06 09:13:48;;;;;;;3.85;3.17;;;27.70;73.30;;;29.33;34.67;98523.63;5140226;28;20200;-61
2022/07/06 09:16:28;;;;;;;4.82;2.70;;;27.70;71.80;;;28.93;34.22;98529.09;5140126;28;20656;-60
2022/07/06 09:19:15;;;;;;;3.08;2.72;;;27.50;71.90;;;28.83;34.91;98530.94;5139244;28;20266;-61
2022/07/06 09:21:49;;;;;;;3.63;2.90;;;27.40;72.60;;;29.09;34.14;98543.97;5144296;28;20293;-61
2022/07/06 09:24:22;;;;;;;3.70;2.60;;;27.50;71.80;;;29.04;34.68;98537.00;5133169;28;20258;-62
2022/07/06 09:26:57;;;;;;;3.50;2.80;;;27.40;72.90;;;29.00;34.46;98545.78;5135375;28;20204;-60
2022/07/06 09:29:32;;;;;;;2.75;2.55;;;27.20;72.40;;;28.93;33.10;98535.28;5145399;28;20202;-61
2022/07/06 09:32:06;;;;;;;2.65;2.55;;;27.30;69.40;;;28.77;33.67;98533.59;5137481;28;20223;-60
2022/07/06 09:34:45;;;;;;;4.53;2.80;;;27.30;69.60;;;28.81;33.50;98543.22;5136217;28;20219;-60
2022/07/06 09:37:18;;;;;;;2.80;2.53;;;27.30;70.20;;;28.90;34.40;98542.28;5141767;28;20204;-61
2022/07/06 09:39:58;;;;;;;3.53;2.67;;;27.40;70.70;;;29.01;34.61;98545.75;5135459;28;20227;-60
2022/07/06 09:42:33;;;;;;;3.38;3.08;;;27.60;72.00;;;28.98;33.99;98546.63;5136023;28;20200;-61
2022/07/06 09:45:09;;;;;;;2.83;2.63;;;27.50;69.70;;;28.87;34.52;98545.84;5139145;28;20235;-61
2022/07/06 09:47:48;;;;;;;3.15;2.80;;;27.40;70.50;;;28.95;33.88;98548.41;5141560;28;20199;-61
2022/07/06 09:50:22;;;;;;;3.50;2.85;;;27.50;71.10;;;28.63;35.66;98551.22;5134704;28;20216;-61
2022/07/06 09:52:56;;;;;;;4.07;3.15;;;27.30;72.20;;;28.74;34.24;98545.00;5132147;28;20255;-60
2022/07/06 09:55:30;;;;;;;3.05;2.85;;;27.40;70.70;;;28.55;35.83;98545.97;5141420;28;20667;-59
2022/07/06 09:58:04;;;;;;;3.83;3.13;;;27.20;72.80;;;28.52;34.73;98543.34;5138394;28;20195;-60
2022/07/06 10:00:38;;;;;;;3.03;2.83;;;27.00;71.40;;;28.41;35.21;98551.25;5133666;28;20330;-61
2022/07/06 10:03:12;;;;;;;4.10;2.80;;;26.90;73.00;;;28.44;35.00;98545.13;5138205;28;20672;-60
2022/07/06 10:05:49;;;;;;;3.58;2.80;;;27.00;71.90;;;28.41;34.84;98551.25;5135191;28;20623;-59
2022/07/06 10:08:23;;;;;;;3.03;2.83;;;27.00;71.30;;;28.08;35.27;98545.22;5140432;28;20690;-58
2022/07/06 10:10:56;;;;;;;3.03;2.83;;;26.70;71.40;;;28.10;35.32;98545.22;5133717;28;20278;-61
2022/07/06 10:13:32;;;;;;;3.10;2.90;;;26.80;71.70;;;28.13;35.27;98542.59;5135511;28;20207;-60
2022/07/06 10:16:06;;;;;;;3.13;2.83;;;26.80;72.00;;;27.97;36.17;98551.38;5126456;28;20310;-60
2022/07/06 10:18:41;;;;;;;6.43;2.72;;;26.80;71.70;;;28.05;36.22;98557.50;5135720;28;20207;-61
2022/07/06 10:21:17;;;;;;;3.10;2.78;;;26.90;72.80;;;28.07;36.51;98547.81;5141573;28;20235;-59
2022/07/06 10:23:51;;;;;;;3.90;2.75;;;27.00;73.20;;;28.08;37.57;98546.97;5139974;28;20199;-61
2022/07/06 10:26:25;;;;;;;3.13;2.78;;;27.00;74.00;;;27.89;36.98;98546.09;5138196;28;20253;-61
2022/07/06 10:29:00;;;;;;;4.45;2.90;;;26.80;73.40;;;27.73;38.63;98544.31;5133995;28;20286;-60
2022/07/06 10:31:36;;;;;;;3.35;2.90;;;26.70;75.40;;;27.89;36.96;98545.22;5139288;28;20223;-61
2022/07/06 10:34:14;;;;;;;2.88;2.67;;;26.80;73.70;;;27.81;37.35;98553.13;5136786;28;20194;-61
2022/07/06 10:36:53;;;;;;;4.97;3.35;;;26.80;73.80;;;27.62;36.53;98554.84;5134943;28;20199;-61
2022/07/06 10:42:42;;;;;;;3.30;2.97;;;26.70;72.50;;;28.03;37.09;98554.84;5132443;28;20259;-61
2022/07/06 10:45:21;;;;;;;4.70;3.00;;;26.90;73.40;;;28.07;36.01;98556.59;5133947;28;20646;-61
2022/07/06 10:48:17;;;;;;;5.28;3.15;;;26.80;72.30;;;27.94;37.12;98554.00;5134359;28;20211;-60
2022/07/06 10:50:53;;;;;;;3.00;2.70;;;26.70;74.00;;;27.89;36.49;98546.09;5135850;28;20227;-61
2022/07/06 10:53:33;;;;;;;4.25;2.80;;;26.70;73.00;;;27.69;37.68;98553.09;5143462;28;20211;-61
2022/07/06 10:56:08;;;;;;;4.05;2.80;;;26.60;74.50;;;27.72;36.81;98551.34;5137984;28;20195;-61
2022/07/06 10:58:52;;;;;;;2.80;2.60;;;26.60;73.20;;;27.59;36.76;98552.22;5136385;28;20202;-60